sensor_id;sensor_type;location;lat;lon;timestamp;temperature;humidity
15394;DHT22;7795;47.986;11.868;2023-02-08T00:01:24;-1.20;65.90
15394;DHT22;7795;47.986;11.868;2023-02-08T00:03:50;-1.20;65.90
15394;DHT22;7795;47.986;11.868;2023-02-08T00:06:16;-1.20;65.90
15394;DHT22;7795;47.986;11.868;2023-02-08T00:08:42;-1.20;65.90
15394;DHT22;7795;47.986;11.868;2023-02-08T00:11:09;-1.30;65.80
15394;DHT22;7795;47.986;11.868;2023-02-08T00:13:35;-1.30;65.80
15394;DHT22;7795;47.986;11.868;2023-02-08T00:16:02;-1.30;65.90
15394;DHT22;7795;47.986;11.868;2023-02-08T00:18:27;-1.30;65.80
15394;DHT22;7795;47.986;11.868;2023-02-08T00:20:53;-1.30;65.90
15394;DHT22;7795;47.986;11.868;2023-02-08T00:23:20;-1.30;65.80
15394;DHT22;7795;47.986;11.868;2023-02-08T00:25:46;-1.30;65.90
15394;DHT22;7795;47.986;11.868;2023-02-08T00:28:14;-1.30;66.60
15394;DHT22;7795;47.986;11.868;2023-02-08T00:30:41;-1.30;65.90
15394;DHT22;7795;47.986;11.868;2023-02-08T00:33:07;-1.30;66.00
15394;DHT22;7795;47.986;11.868;2023-02-08T00:35:33;-1.30;66.10
15394;DHT22;7795;47.986;11.868;2023-02-08T00:37:59;-1.30;66.20
15394;DHT22;7795;47.986;11.868;2023-02-08T00:40:25;-1.30;66.20
15394;DHT22;7795;47.986;11.868;2023-02-08T00:42:51;-1.30;66.20
15394;DHT22;7795;47.986;11.868;2023-02-08T00:45:18;-1.30;66.30
15394;DHT22;7795;47.986;11.868;2023-02-08T00:47:44;-1.30;66.30
15394;DHT22;7795;47.986;11.868;2023-02-08T00:50:10;-1.40;66.20
15394;DHT22;7795;47.986;11.868;2023-02-08T00:52:36;-1.40;66.20
15394;DHT22;7795;47.986;11.868;2023-02-08T00:55:04;-1.40;66.30
15394;DHT22;7795;47.986;11.868;2023-02-08T00:57:31;-1.40;66.40
15394;DHT22;7795;47.986;11.868;2023-02-08T00:59:56;-1.40;66.40
15394;DHT22;7795;47.986;11.868;2023-02-08T01:02:24;-1.40;66.20
15394;DHT22;7795;47.986;11.868;2023-02-08T01:04:50;-1.40;66.20
15394;DHT22;7795;47.986;11.868;2023-02-08T01:07:15;-1.40;66.20
15394;DHT22;7795;47.986;11.868;2023-02-08T01:09:41;-1.40;66.10
15394;DHT22;7795;47.986;11.868;2023-02-08T01:12:07;-1.40;66.10
15394;DHT22;7795;47.986;11.868;2023-02-08T01:14:33;-1.40;66.10
15394;DHT22;7795;47.986;11.868;2023-02-08T01:16:59;-1.40;66.80
15394;DHT22;7795;47.986;11.868;2023-02-08T01:19:26;-1.40;66.10
15394;DHT22;7795;47.986;11.868;2023-02-08T01:21:52;-1.40;66.10
15394;DHT22;7795;47.986;11.868;2023-02-08T01:24:17;-1.40;66.10
15394;DHT22;7795;47.986;11.868;2023-02-08T01:26:43;-1.40;66.10
15394;DHT22;7795;47.986;11.868;2023-02-08T01:29:09;-1.40;66.10
15394;DHT22;7795;47.986;11.868;2023-02-08T01:31:37;-1.40;66.00
15394;DHT22;7795;47.986;11.868;2023-02-08T01:34:04;-1.40;66.00
15394;DHT22;7795;47.986;11.868;2023-02-08T01:36:32;-1.40;65.90
15394;DHT22;7795;47.986;11.868;2023-02-08T01:38:58;-1.40;65.90
15394;DHT22;7795;47.986;11.868;2023-02-08T01:41:26;-1.50;65.90
15394;DHT22;7795;47.986;11.868;2023-02-08T01:44:05;-1.50;66.00
15394;DHT22;7795;47.986;11.868;2023-02-08T01:46:32;-1.50;65.90
15394;DHT22;7795;47.986;11.868;2023-02-08T01:49:01;-1.50;66.00
15394;DHT22;7795;47.986;11.868;2023-02-08T01:51:33;-1.50;66.00
15394;DHT22;7795;47.986;11.868;2023-02-08T01:54:02;-1.50;65.90
15394;DHT22;7795;47.986;11.868;2023-02-08T01:56:32;-1.50;65.90
15394;DHT22;7795;47.986;11.868;2023-02-08T01:59:02;-1.50;65.90
15394;DHT22;7795;47.986;11.868;2023-02-08T02:01:30;-1.50;66.00
15394;DHT22;7795;47.986;11.868;2023-02-08T02:03:56;-1.50;66.10
15394;DHT22;7795;47.986;11.868;2023-02-08T02:06:25;-1.50;66.10
15394;DHT22;7795;47.986;11.868;2023-02-08T02:09:02;-1.60;66.00
15394;DHT22;7795;47.986;11.868;2023-02-08T02:11:30;-1.50;66.20
15394;DHT22;7795;47.986;11.868;2023-02-08T02:13:56;-1.60;66.10
15394;DHT22;7795;47.986;11.868;2023-02-08T02:16:22;-1.60;66.30
15394;DHT22;7795;47.986;11.868;2023-02-08T02:18:48;-1.60;66.30
15394;DHT22;7795;47.986;11.868;2023-02-08T02:21:34;-1.60;66.20
15394;DHT22;7795;47.986;11.868;2023-02-08T02:24:31;-1.60;66.00
15394;DHT22;7795;47.986;11.868;2023-02-08T02:27:17;-1.60;66.00
15394;DHT22;7795;47.986;11.868;2023-02-08T02:33:05;-1.70;66.10
15394;DHT22;7795;47.986;11.868;2023-02-08T02:35:39;-1.70;66.10
15394;DHT22;7795;47.986;11.868;2023-02-08T02:38:14;-1.70;66.20
15394;DHT22;7795;47.986;11.868;2023-02-08T02:40:49;-1.80;66.10
15394;DHT22;7795;47.986;11.868;2023-02-08T02:43:20;-1.80;66.20
15394;DHT22;7795;47.986;11.868;2023-02-08T02:46:12;-1.80;66.30
15394;DHT22;7795;47.986;11.868;2023-02-08T02:48:47;-1.80;66.30
15394;DHT22;7795;47.986;11.868;2023-02-08T02:51:19;-1.80;66.40
15394;DHT22;7795;47.986;11.868;2023-02-08T02:53:50;-1.90;66.40
15394;DHT22;7795;47.986;11.868;2023-02-08T02:56:20;-1.90;66.50
15394;DHT22;7795;47.986;11.868;2023-02-08T02:58:46;-1.90;66.60
15394;DHT22;7795;47.986;11.868;2023-02-08T03:01:13;-2.00;66.60
15394;DHT22;7795;47.986;11.868;2023-02-08T03:03:40;-2.00;66.70
15394;DHT22;7795;47.986;11.868;2023-02-08T03:06:09;-1.90;66.90
15394;DHT22;7795;47.986;11.868;2023-02-08T03:09:09;-1.90;66.80
15394;DHT22;7795;47.986;11.868;2023-02-08T03:11:38;-2.00;66.80
15394;DHT22;7795;47.986;11.868;2023-02-08T03:14:28;-2.00;66.80
15394;DHT22;7795;47.986;11.868;2023-02-08T03:17:23;-2.00;66.90
15394;DHT22;7795;47.986;11.868;2023-02-08T03:20:02;-2.00;66.90
15394;DHT22;7795;47.986;11.868;2023-02-08T03:22:38;-2.00;66.90
15394;DHT22;7795;47.986;11.868;2023-02-08T03:25:09;-2.00;66.90
15394;DHT22;7795;47.986;11.868;2023-02-08T03:27:41;-2.10;66.90
15394;DHT22;7795;47.986;11.868;2023-02-08T03:30:13;-2.10;66.90
15394;DHT22;7795;47.986;11.868;2023-02-08T03:32:42;-2.10;66.90
15394;DHT22;7795;47.986;11.868;2023-02-08T03:35:14;-2.10;67.00
15394;DHT22;7795;47.986;11.868;2023-02-08T03:37:44;-2.10;66.90
15394;DHT22;7795;47.986;11.868;2023-02-08T03:40:16;-2.10;67.00
15394;DHT22;7795;47.986;11.868;2023-02-08T03:42:44;-2.20;67.00
15394;DHT22;7795;47.986;11.868;2023-02-08T03:45:15;-2.20;67.80
15394;DHT22;7795;47.986;11.868;2023-02-08T03:47:43;-2.20;67.10
15394;DHT22;7795;47.986;11.868;2023-02-08T03:50:14;-2.20;67.10
15394;DHT22;7795;47.986;11.868;2023-02-08T03:52:44;-2.20;67.20
15394;DHT22;7795;47.986;11.868;2023-02-08T03:55:13;-2.20;67.20
15394;DHT22;7795;47.986;11.868;2023-02-08T03:57:45;-2.20;67.30
15394;DHT22;7795;47.986;11.868;2023-02-08T04:00:15;-2.30;67.20
15394;DHT22;7795;47.986;11.868;2023-02-08T04:02:45;-2.20;67.30
15394;DHT22;7795;47.986;11.868;2023-02-08T04:05:14;-2.20;67.40
15394;DHT22;7795;47.986;11.868;2023-02-08T04:07:40;-2.30;67.40
15394;DHT22;7795;47.986;11.868;2023-02-08T04:10:07;-2.30;67.40
15394;DHT22;7795;47.986;11.868;2023-02-08T04:12:32;-2.30;67.40
15394;DHT22;7795;47.986;11.868;2023-02-08T04:14:58;-2.30;67.40
15394;DHT22;7795;47.986;11.868;2023-02-08T04:17:24;-2.30;67.40
15394;DHT22;7795;47.986;11.868;2023-02-08T04:19:50;-2.30;67.40
15394;DHT22;7795;47.986;11.868;2023-02-08T04:22:17;-2.30;68.20
15394;DHT22;7795;47.986;11.868;2023-02-08T04:24:42;-2.30;68.30
15394;DHT22;7795;47.986;11.868;2023-02-08T04:27:08;-2.30;67.60
15394;DHT22;7795;47.986;11.868;2023-02-08T04:29:34;-2.30;67.70
15394;DHT22;7795;47.986;11.868;2023-02-08T04:31:59;-2.30;67.80
15394;DHT22;7795;47.986;11.868;2023-02-08T04:34:25;-2.40;67.70
15394;DHT22;7795;47.986;11.868;2023-02-08T04:36:51;-2.30;67.80
15394;DHT22;7795;47.986;11.868;2023-02-08T04:39:19;-2.40;67.70
15394;DHT22;7795;47.986;11.868;2023-02-08T04:41:44;-2.40;67.70
15394;DHT22;7795;47.986;11.868;2023-02-08T04:44:10;-2.40;67.70
15394;DHT22;7795;47.986;11.868;2023-02-08T04:46:36;-2.40;67.70
15394;DHT22;7795;47.986;11.868;2023-02-08T04:49:02;-2.40;67.80
15394;DHT22;7795;47.986;11.868;2023-02-08T04:51:27;-2.40;67.90
15394;DHT22;7795;47.986;11.868;2023-02-08T04:53:53;-2.40;68.00
15394;DHT22;7795;47.986;11.868;2023-02-08T04:56:20;-2.30;68.00
15394;DHT22;7795;47.986;11.868;2023-02-08T04:58:46;-2.30;68.00
15394;DHT22;7795;47.986;11.868;2023-02-08T05:01:13;-2.30;68.00
15394;DHT22;7795;47.986;11.868;2023-02-08T05:03:40;-2.30;68.00
15394;DHT22;7795;47.986;11.868;2023-02-08T05:06:06;-2.30;68.00
15394;DHT22;7795;47.986;11.868;2023-02-08T05:08:32;-2.30;68.00
15394;DHT22;7795;47.986;11.868;2023-02-08T05:10:58;-2.30;68.10
15394;DHT22;7795;47.986;11.868;2023-02-08T05:13:25;-2.30;68.10
15394;DHT22;7795;47.986;11.868;2023-02-08T05:15:51;-2.30;68.00
15394;DHT22;7795;47.986;11.868;2023-02-08T05:18:16;-2.30;68.10
15394;DHT22;7795;47.986;11.868;2023-02-08T05:20:42;-2.30;68.20
15394;DHT22;7795;47.986;11.868;2023-02-08T05:23:08;-2.30;68.20
15394;DHT22;7795;47.986;11.868;2023-02-08T05:25:34;-2.30;68.20
15394;DHT22;7795;47.986;11.868;2023-02-08T05:28:00;-2.40;68.20
15394;DHT22;7795;47.986;11.868;2023-02-08T05:30:27;-2.40;68.20
15394;DHT22;7795;47.986;11.868;2023-02-08T05:32:53;-2.30;68.30
15394;DHT22;7795;47.986;11.868;2023-02-08T05:35:19;-2.40;68.30
15394;DHT22;7795;47.986;11.868;2023-02-08T05:37:44;-2.30;68.30
15394;DHT22;7795;47.986;11.868;2023-02-08T05:40:10;-2.40;68.30
15394;DHT22;7795;47.986;11.868;2023-02-08T05:42:37;-2.40;68.30
15394;DHT22;7795;47.986;11.868;2023-02-08T05:45:04;-2.40;68.30
15394;DHT22;7795;47.986;11.868;2023-02-08T05:47:31;-2.40;68.30
15394;DHT22;7795;47.986;11.868;2023-02-08T05:49:57;-2.40;68.30
15394;DHT22;7795;47.986;11.868;2023-02-08T05:52:22;-2.40;68.30
15394;DHT22;7795;47.986;11.868;2023-02-08T05:54:48;-2.40;68.30
15394;DHT22;7795;47.986;11.868;2023-02-08T05:57:14;-2.40;68.30
15394;DHT22;7795;47.986;11.868;2023-02-08T05:59:40;-2.40;68.30
15394;DHT22;7795;47.986;11.868;2023-02-08T06:02:09;-2.40;68.40
15394;DHT22;7795;47.986;11.868;2023-02-08T06:04:36;-2.40;68.40
15394;DHT22;7795;47.986;11.868;2023-02-08T06:07:02;-2.40;68.30
15394;DHT22;7795;47.986;11.868;2023-02-08T06:09:27;-2.40;68.30
15394;DHT22;7795;47.986;11.868;2023-02-08T06:11:53;-2.40;68.40
15394;DHT22;7795;47.986;11.868;2023-02-08T06:14:19;-2.40;68.40
15394;DHT22;7795;47.986;11.868;2023-02-08T06:16:45;-2.40;68.40
15394;DHT22;7795;47.986;11.868;2023-02-08T06:19:10;-2.40;68.40
15394;DHT22;7795;47.986;11.868;2023-02-08T06:21:39;-2.40;68.40
15394;DHT22;7795;47.986;11.868;2023-02-08T06:24:05;-2.40;68.50
15394;DHT22;7795;47.986;11.868;2023-02-08T06:26:31;-2.40;68.50
15394;DHT22;7795;47.986;11.868;2023-02-08T06:28:57;-2.50;68.40
15394;DHT22;7795;47.986;11.868;2023-02-08T06:31:23;-2.40;68.60
15394;DHT22;7795;47.986;11.868;2023-02-08T06:33:49;-2.50;68.60
15394;DHT22;7795;47.986;11.868;2023-02-08T06:36:15;-2.40;68.60
15394;DHT22;7795;47.986;11.868;2023-02-08T06:38:42;-2.50;68.60
15394;DHT22;7795;47.986;11.868;2023-02-08T06:41:08;-2.50;68.60
15394;DHT22;7795;47.986;11.868;2023-02-08T06:43:34;-2.40;68.70
15394;DHT22;7795;47.986;11.868;2023-02-08T06:46:00;-2.50;68.80
15394;DHT22;7795;47.986;11.868;2023-02-08T06:48:29;-2.40;68.90
15394;DHT22;7795;47.986;11.868;2023-02-08T06:50:54;-2.40;68.90
15394;DHT22;7795;47.986;11.868;2023-02-08T06:53:20;-2.40;68.90
15394;DHT22;7795;47.986;11.868;2023-02-08T06:55:48;-2.40;68.90
15394;DHT22;7795;47.986;11.868;2023-02-08T06:58:14;-2.40;68.90
15394;DHT22;7795;47.986;11.868;2023-02-08T07:00:40;-2.40;68.90
15394;DHT22;7795;47.986;11.868;2023-02-08T07:03:06;-2.40;68.90
15394;DHT22;7795;47.986;11.868;2023-02-08T07:05:33;-2.40;68.90
15394;DHT22;7795;47.986;11.868;2023-02-08T07:07:59;-2.40;69.00
15394;DHT22;7795;47.986;11.868;2023-02-08T07:10:24;-2.40;69.00
15394;DHT22;7795;47.986;11.868;2023-02-08T07:12:52;-2.40;69.00
15394;DHT22;7795;47.986;11.868;2023-02-08T07:15:18;-2.40;69.80
15394;DHT22;7795;47.986;11.868;2023-02-08T07:17:43;-2.40;69.00
15394;DHT22;7795;47.986;11.868;2023-02-08T07:20:10;-2.40;69.10
15394;DHT22;7795;47.986;11.868;2023-02-08T07:22:36;-2.40;69.20
15394;DHT22;7795;47.986;11.868;2023-02-08T07:25:02;-2.40;69.20
15394;DHT22;7795;47.986;11.868;2023-02-08T07:27:28;-2.30;69.20
15394;DHT22;7795;47.986;11.868;2023-02-08T07:29:55;-2.30;69.30
15394;DHT22;7795;47.986;11.868;2023-02-08T07:32:21;-2.30;69.30
15394;DHT22;7795;47.986;11.868;2023-02-08T07:34:46;-2.30;69.30
15394;DHT22;7795;47.986;11.868;2023-02-08T07:37:12;-2.30;69.30
15394;DHT22;7795;47.986;11.868;2023-02-08T07:39:38;-2.30;69.30
15394;DHT22;7795;47.986;11.868;2023-02-08T07:42:04;-2.20;69.40
15394;DHT22;7795;47.986;11.868;2023-02-08T07:44:31;-2.20;69.50
15394;DHT22;7795;47.986;11.868;2023-02-08T07:46:58;-2.20;69.50
15394;DHT22;7795;47.986;11.868;2023-02-08T07:49:24;-2.10;69.50
15394;DHT22;7795;47.986;11.868;2023-02-08T07:51:49;-2.10;69.40
15394;DHT22;7795;47.986;11.868;2023-02-08T07:54:15;-2.00;69.60
15394;DHT22;7795;47.986;11.868;2023-02-08T07:56:41;-2.00;69.50
15394;DHT22;7795;47.986;11.868;2023-02-08T07:59:06;-2.00;69.50
15394;DHT22;7795;47.986;11.868;2023-02-08T08:01:33;-1.90;69.60
15394;DHT22;7795;47.986;11.868;2023-02-08T08:04:00;-1.90;69.60
15394;DHT22;7795;47.986;11.868;2023-02-08T08:06:25;-1.80;69.60
15394;DHT22;7795;47.986;11.868;2023-02-08T08:08:51;-1.80;69.50
15394;DHT22;7795;47.986;11.868;2023-02-08T08:11:19;-1.70;69.60
15394;DHT22;7795;47.986;11.868;2023-02-08T08:13:45;-1.60;70.30
15394;DHT22;7795;47.986;11.868;2023-02-08T08:16:11;-1.60;69.40
15394;DHT22;7795;47.986;11.868;2023-02-08T08:18:37;-1.60;69.40
15394;DHT22;7795;47.986;11.868;2023-02-08T08:21:05;-1.50;69.50
15394;DHT22;7795;47.986;11.868;2023-02-08T08:23:31;-1.50;69.60
15394;DHT22;7795;47.986;11.868;2023-02-08T08:26:05;-1.40;69.70
15394;DHT22;7795;47.986;11.868;2023-02-08T08:28:31;-1.40;69.80
15394;DHT22;7795;47.986;11.868;2023-02-08T08:30:57;-1.30;69.80
15394;DHT22;7795;47.986;11.868;2023-02-08T08:33:22;-1.30;69.80
15394;DHT22;7795;47.986;11.868;2023-02-08T08:35:48;-1.20;69.70
15394;DHT22;7795;47.986;11.868;2023-02-08T08:38:15;-1.20;69.60
15394;DHT22;7795;47.986;11.868;2023-02-08T08:40:41;-1.10;69.60
15394;DHT22;7795;47.986;11.868;2023-02-08T08:43:07;-1.00;69.70
15394;DHT22;7795;47.986;11.868;2023-02-08T08:45:33;-1.00;69.70
15394;DHT22;7795;47.986;11.868;2023-02-08T08:48:01;-0.90;69.60
15394;DHT22;7795;47.986;11.868;2023-02-08T08:50:27;-0.80;69.60
15394;DHT22;7795;47.986;11.868;2023-02-08T08:52:53;-0.70;69.60
15394;DHT22;7795;47.986;11.868;2023-02-08T08:55:20;-0.70;69.50
15394;DHT22;7795;47.986;11.868;2023-02-08T08:57:46;-0.60;69.40
15394;DHT22;7795;47.986;11.868;2023-02-08T09:00:12;-0.50;69.20
15394;DHT22;7795;47.986;11.868;2023-02-08T09:02:38;-0.50;69.10
15394;DHT22;7795;47.986;11.868;2023-02-08T09:05:04;-0.40;69.40
15394;DHT22;7795;47.986;11.868;2023-02-08T09:07:32;-0.40;69.40
15394;DHT22;7795;47.986;11.868;2023-02-08T09:09:58;-0.30;69.40
15394;DHT22;7795;47.986;11.868;2023-02-08T09:12:25;-0.20;69.40
15394;DHT22;7795;47.986;11.868;2023-02-08T09:14:51;-0.10;69.30
15394;DHT22;7795;47.986;11.868;2023-02-08T09:17:17;-0.10;69.20
15394;DHT22;7795;47.986;11.868;2023-02-08T09:19:43;0.00;69.20
15394;DHT22;7795;47.986;11.868;2023-02-08T09:22:08;0.10;69.20
15394;DHT22;7795;47.986;11.868;2023-02-08T09:24:34;0.10;69.10
15394;DHT22;7795;47.986;11.868;2023-02-08T09:27:00;0.20;69.10
15394;DHT22;7795;47.986;11.868;2023-02-08T09:29:27;0.20;68.80
15394;DHT22;7795;47.986;11.868;2023-02-08T09:31:55;0.30;68.90
15394;DHT22;7795;47.986;11.868;2023-02-08T09:34:20;0.30;69.10
15394;DHT22;7795;47.986;11.868;2023-02-08T09:36:46;0.40;68.90
15394;DHT22;7795;47.986;11.868;2023-02-08T09:39:15;0.40;68.60
15394;DHT22;7795;47.986;11.868;2023-02-08T09:44:48;0.50;68.30
15394;DHT22;7795;47.986;11.868;2023-02-08T09:47:18;0.50;68.20
15394;DHT22;7795;47.986;11.868;2023-02-08T09:49:53;0.50;68.30
15394;DHT22;7795;47.986;11.868;2023-02-08T09:52:23;0.60;68.50
15394;DHT22;7795;47.986;11.868;2023-02-08T09:54:55;0.60;68.60
15394;DHT22;7795;47.986;11.868;2023-02-08T09:57:28;0.70;68.70
15394;DHT22;7795;47.986;11.868;2023-02-08T10:00:00;0.70;68.70
15394;DHT22;7795;47.986;11.868;2023-02-08T10:02:28;0.80;68.70
15394;DHT22;7795;47.986;11.868;2023-02-08T10:04:58;0.80;68.60
15394;DHT22;7795;47.986;11.868;2023-02-08T10:07:26;0.90;68.50
15394;DHT22;7795;47.986;11.868;2023-02-08T10:09:54;1.00;68.40
15394;DHT22;7795;47.986;11.868;2023-02-08T10:12:29;1.00;68.30
15394;DHT22;7795;47.986;11.868;2023-02-08T10:15:09;1.10;68.30
15394;DHT22;7795;47.986;11.868;2023-02-08T10:17:47;1.20;68.50
15394;DHT22;7795;47.986;11.868;2023-02-08T10:20:23;1.20;68.60
15394;DHT22;7795;47.986;11.868;2023-02-08T10:23:02;1.30;68.50
15394;DHT22;7795;47.986;11.868;2023-02-08T10:25:45;1.40;68.20
15394;DHT22;7795;47.986;11.868;2023-02-08T10:28:33;1.50;67.90
15394;DHT22;7795;47.986;11.868;2023-02-08T10:31:11;1.50;68.40
15394;DHT22;7795;47.986;11.868;2023-02-08T10:33:47;1.50;67.50
15394;DHT22;7795;47.986;11.868;2023-02-08T10:36:19;1.60;67.40
15394;DHT22;7795;47.986;11.868;2023-02-08T10:38:47;1.60;67.40
15394;DHT22;7795;47.986;11.868;2023-02-08T10:41:17;1.70;67.40
15394;DHT22;7795;47.986;11.868;2023-02-08T10:43:53;1.70;67.40
15394;DHT22;7795;47.986;11.868;2023-02-08T10:46:26;1.80;67.30
15394;DHT22;7795;47.986;11.868;2023-02-08T10:49:02;1.80;67.20
15394;DHT22;7795;47.986;11.868;2023-02-08T10:51:32;1.80;67.10
15394;DHT22;7795;47.986;11.868;2023-02-08T10:53:57;1.90;67.20
15394;DHT22;7795;47.986;11.868;2023-02-08T10:56:35;1.90;67.20
15394;DHT22;7795;47.986;11.868;2023-02-08T10:59:06;2.00;66.70
15394;DHT22;7795;47.986;11.868;2023-02-08T11:01:39;2.00;66.40
15394;DHT22;7795;47.986;11.868;2023-02-08T11:04:06;2.00;66.40
15394;DHT22;7795;47.986;11.868;2023-02-08T11:06:34;2.00;66.20
15394;DHT22;7795;47.986;11.868;2023-02-08T11:09:00;2.00;66.30
15394;DHT22;7795;47.986;11.868;2023-02-08T11:11:26;2.00;66.40
15394;DHT22;7795;47.986;11.868;2023-02-08T11:14:07;2.00;66.40
15394;DHT22;7795;47.986;11.868;2023-02-08T11:16:33;2.00;66.40
15394;DHT22;7795;47.986;11.868;2023-02-08T11:19:02;2.00;66.60
15394;DHT22;7795;47.986;11.868;2023-02-08T11:21:31;2.00;66.60
15394;DHT22;7795;47.986;11.868;2023-02-08T11:24:05;2.00;66.70
15394;DHT22;7795;47.986;11.868;2023-02-08T11:26:33;2.00;66.90
15394;DHT22;7795;47.986;11.868;2023-02-08T11:29:02;2.00;66.90
15394;DHT22;7795;47.986;11.868;2023-02-08T11:31:28;2.10;66.80
15394;DHT22;7795;47.986;11.868;2023-02-08T11:34:02;2.10;66.80
15394;DHT22;7795;47.986;11.868;2023-02-08T11:36:29;2.10;66.70
15394;DHT22;7795;47.986;11.868;2023-02-08T11:38:55;2.20;66.70
15394;DHT22;7795;47.986;11.868;2023-02-08T11:41:22;2.20;66.80
15394;DHT22;7795;47.986;11.868;2023-02-08T11:43:56;2.20;66.90
15394;DHT22;7795;47.986;11.868;2023-02-08T11:46:24;2.20;66.60
15394;DHT22;7795;47.986;11.868;2023-02-08T11:48:53;2.30;66.70
15394;DHT22;7795;47.986;11.868;2023-02-08T11:51:32;2.30;66.60
15394;DHT22;7795;47.986;11.868;2023-02-08T11:54:02;2.40;67.20
15394;DHT22;7795;47.986;11.868;2023-02-08T11:56:30;2.40;66.60
15394;DHT22;7795;47.986;11.868;2023-02-08T11:59:03;2.40;66.40
15394;DHT22;7795;47.986;11.868;2023-02-08T12:01:32;2.40;66.20
15394;DHT22;7795;47.986;11.868;2023-02-08T12:04:01;2.40;66.40
15394;DHT22;7795;47.986;11.868;2023-02-08T12:09:52;2.50;66.60
15394;DHT22;7795;47.986;11.868;2023-02-08T12:12:27;2.60;66.50
15394;DHT22;7795;47.986;11.868;2023-02-08T12:15:01;2.60;66.50
15394;DHT22;7795;47.986;11.868;2023-02-08T12:17:52;2.70;66.40
15394;DHT22;7795;47.986;11.868;2023-02-08T12:20:39;2.70;66.10
15394;DHT22;7795;47.986;11.868;2023-02-08T12:23:27;2.80;66.10
15394;DHT22;7795;47.986;11.868;2023-02-08T12:26:03;2.80;66.00
15394;DHT22;7795;47.986;11.868;2023-02-08T12:28:42;2.90;66.10
15394;DHT22;7795;47.986;11.868;2023-02-08T12:31:16;2.90;66.20
15394;DHT22;7795;47.986;11.868;2023-02-08T12:33:51;2.90;66.40
15394;DHT22;7795;47.986;11.868;2023-02-08T12:36:36;3.00;66.10
15394;DHT22;7795;47.986;11.868;2023-02-08T12:39:29;3.00;65.60
15394;DHT22;7795;47.986;11.868;2023-02-08T12:42:33;3.00;65.80
15394;DHT22;7795;47.986;11.868;2023-02-08T12:45:30;3.00;65.90
15394;DHT22;7795;47.986;11.868;2023-02-08T12:48:11;3.00;66.00
15394;DHT22;7795;47.986;11.868;2023-02-08T12:50:47;3.00;65.90
15394;DHT22;7795;47.986;11.868;2023-02-08T12:53:19;3.00;65.70
15394;DHT22;7795;47.986;11.868;2023-02-08T12:55:48;3.00;65.80
15394;DHT22;7795;47.986;11.868;2023-02-08T12:58:23;3.00;65.90
15394;DHT22;7795;47.986;11.868;2023-02-08T13:00:51;3.00;66.10
15394;DHT22;7795;47.986;11.868;2023-02-08T13:03:28;3.00;66.10
15394;DHT22;7795;47.986;11.868;2023-02-08T13:05:56;3.10;66.10
15394;DHT22;7795;47.986;11.868;2023-02-08T13:08:27;3.10;66.10
15394;DHT22;7795;47.986;11.868;2023-02-08T13:10:58;3.10;65.60
15394;DHT22;7795;47.986;11.868;2023-02-08T13:13:29;3.10;65.70
15394;DHT22;7795;47.986;11.868;2023-02-08T13:15:57;3.10;65.70
15394;DHT22;7795;47.986;11.868;2023-02-08T13:18:29;3.10;65.70
15394;DHT22;7795;47.986;11.868;2023-02-08T13:21:00;3.20;65.60
15394;DHT22;7795;47.986;11.868;2023-02-08T13:23:29;3.20;65.60
15394;DHT22;7795;47.986;11.868;2023-02-08T13:26:00;3.20;65.60
15394;DHT22;7795;47.986;11.868;2023-02-08T13:28:27;3.20;65.70
15394;DHT22;7795;47.986;11.868;2023-02-08T13:30:57;3.20;65.60
15394;DHT22;7795;47.986;11.868;2023-02-08T13:33:35;3.20;65.80
15394;DHT22;7795;47.986;11.868;2023-02-08T13:36:04;3.20;65.60
15394;DHT22;7795;47.986;11.868;2023-02-08T13:38:32;3.20;65.60
15394;DHT22;7795;47.986;11.868;2023-02-08T13:41:13;3.20;65.60
15394;DHT22;7795;47.986;11.868;2023-02-08T13:43:45;3.20;65.60
15394;DHT22;7795;47.986;11.868;2023-02-08T13:46:12;3.20;65.70
15394;DHT22;7795;47.986;11.868;2023-02-08T13:48:47;3.10;65.70
15394;DHT22;7795;47.986;11.868;2023-02-08T13:51:42;3.20;65.50
15394;DHT22;7795;47.986;11.868;2023-02-08T13:54:14;3.10;65.40
15394;DHT22;7795;47.986;11.868;2023-02-08T13:56:43;3.10;65.70
15394;DHT22;7795;47.986;11.868;2023-02-08T13:59:34;3.10;65.60
15394;DHT22;7795;47.986;11.868;2023-02-08T14:02:23;3.10;65.50
15394;DHT22;7795;47.986;11.868;2023-02-08T14:04:52;3.10;65.50
15394;DHT22;7795;47.986;11.868;2023-02-08T14:07:26;3.20;66.50
15394;DHT22;7795;47.986;11.868;2023-02-08T14:10:06;3.20;65.40
15394;DHT22;7795;47.986;11.868;2023-02-08T14:12:40;3.20;65.30
15394;DHT22;7795;47.986;11.868;2023-02-08T14:15:23;3.20;65.30
15394;DHT22;7795;47.986;11.868;2023-02-08T14:17:50;3.10;64.90
15394;DHT22;7795;47.986;11.868;2023-02-08T14:20:23;3.10;65.20
15394;DHT22;7795;47.986;11.868;2023-02-08T14:22:53;3.10;65.30
15394;DHT22;7795;47.986;11.868;2023-02-08T14:25:22;3.10;65.30
15394;DHT22;7795;47.986;11.868;2023-02-08T14:27:52;3.10;65.40
15394;DHT22;7795;47.986;11.868;2023-02-08T14:30:22;3.10;65.50
15394;DHT22;7795;47.986;11.868;2023-02-08T14:32:51;3.10;65.50
15394;DHT22;7795;47.986;11.868;2023-02-08T14:35:21;3.10;65.50
15394;DHT22;7795;47.986;11.868;2023-02-08T14:37:49;3.10;65.60
15394;DHT22;7795;47.986;11.868;2023-02-08T14:40:46;3.20;65.60
15394;DHT22;7795;47.986;11.868;2023-02-08T14:43:31;3.20;65.30
15394;DHT22;7795;47.986;11.868;2023-02-08T14:45:58;3.20;65.30
15394;DHT22;7795;47.986;11.868;2023-02-08T14:48:45;3.20;65.50
15394;DHT22;7795;47.986;11.868;2023-02-08T14:51:16;3.20;65.50
15394;DHT22;7795;47.986;11.868;2023-02-08T14:53:48;3.20;65.30
15394;DHT22;7795;47.986;11.868;2023-02-08T14:56:18;3.20;65.30
15394;DHT22;7795;47.986;11.868;2023-02-08T14:58:49;3.20;65.30
15394;DHT22;7795;47.986;11.868;2023-02-08T15:01:18;3.20;65.20
15394;DHT22;7795;47.986;11.868;2023-02-08T15:03:46;3.20;65.20
15394;DHT22;7795;47.986;11.868;2023-02-08T15:06:29;3.20;65.10
15394;DHT22;7795;47.986;11.868;2023-02-08T15:08:59;3.30;64.90
15394;DHT22;7795;47.986;11.868;2023-02-08T15:11:28;3.20;65.10
15394;DHT22;7795;47.986;11.868;2023-02-08T15:13:57;3.20;65.10
15394;DHT22;7795;47.986;11.868;2023-02-08T15:16:28;3.20;65.20
15394;DHT22;7795;47.986;11.868;2023-02-08T15:18:57;3.20;65.10
15394;DHT22;7795;47.986;11.868;2023-02-08T15:21:28;3.20;65.00
15394;DHT22;7795;47.986;11.868;2023-02-08T15:23:58;3.20;65.10
15394;DHT22;7795;47.986;11.868;2023-02-08T15:26:24;3.10;65.00
15394;DHT22;7795;47.986;11.868;2023-02-08T15:28:51;3.10;65.10
15394;DHT22;7795;47.986;11.868;2023-02-08T15:31:21;3.10;65.10
15394;DHT22;7795;47.986;11.868;2023-02-08T15:33:47;3.10;65.10
15394;DHT22;7795;47.986;11.868;2023-02-08T15:36:16;3.10;65.20
15394;DHT22;7795;47.986;11.868;2023-02-08T15:38:43;3.10;65.10
15394;DHT22;7795;47.986;11.868;2023-02-08T15:41:11;3.10;65.20
15394;DHT22;7795;47.986;11.868;2023-02-08T15:43:39;3.10;65.10
15394;DHT22;7795;47.986;11.868;2023-02-08T15:46:06;3.00;64.90
15394;DHT22;7795;47.986;11.868;2023-02-08T15:48:43;3.00;64.80
15394;DHT22;7795;47.986;11.868;2023-02-08T15:51:11;3.00;64.80
15394;DHT22;7795;47.986;11.868;2023-02-08T15:53:40;3.00;64.90
15394;DHT22;7795;47.986;11.868;2023-02-08T15:56:08;2.90;65.10
15394;DHT22;7795;47.986;11.868;2023-02-08T15:58:36;2.90;65.10
15394;DHT22;7795;47.986;11.868;2023-02-08T16:01:04;2.90;65.00
15394;DHT22;7795;47.986;11.868;2023-02-08T16:03:31;2.90;65.00